createdAt,value
2022-10-22T00:01:20.085Z,15.60
2022-10-22T00:03:46.598Z,15.64
2022-10-22T00:06:13.352Z,15.62
2022-10-22T00:08:39.832Z,15.62
2022-10-22T00:11:13.690Z,15.67
2022-10-22T00:13:40.264Z,15.69
2022-10-22T00:16:07.294Z,15.69
2022-10-22T00:18:33.637Z,15.64
2022-10-22T00:21:00.014Z,15.66
2022-10-22T00:23:26.505Z,15.64
2022-10-22T00:25:53.600Z,15.70
2022-10-22T00:28:20.346Z,15.75
2022-10-22T00:30:46.693Z,15.73
2022-10-22T00:33:13.495Z,15.75
2022-10-22T00:35:39.859Z,15.72
2022-10-22T00:38:06.206Z,15.71
2022-10-22T00:40:32.609Z,15.69
2022-10-22T00:42:58.948Z,15.68
2022-10-22T00:45:26.131Z,15.69
2022-10-22T00:47:57.692Z,15.72
2022-10-22T00:50:29.990Z,15.70
2022-10-22T00:52:57.462Z,15.74
2022-10-22T00:55:24.812Z,15.76
2022-10-22T00:57:52.118Z,15.75
2022-10-22T01:00:18.819Z,15.74
2022-10-22T01:02:45.252Z,15.72
2022-10-22T01:05:11.813Z,15.68
2022-10-22T01:07:40.943Z,15.63
2022-10-22T01:10:07.481Z,15.63
2022-10-22T01:12:54.916Z,15.61
2022-10-22T01:15:39.716Z,15.58
2022-10-22T01:18:09.009Z,15.62
2022-10-22T01:20:35.410Z,15.60
2022-10-22T01:23:34.188Z,15.62
2022-10-22T01:26:05.939Z,15.61
2022-10-22T01:28:35.408Z,15.60
2022-10-22T01:31:03.277Z,15.57
2022-10-22T01:33:30.897Z,15.61
2022-10-22T01:35:57.371Z,15.59
2022-10-22T01:38:24.997Z,15.60
2022-10-22T01:40:51.340Z,15.65
2022-10-22T01:43:17.767Z,15.59
2022-10-22T01:45:49.897Z,15.59
2022-10-22T01:48:22.720Z,15.56
2022-10-22T01:50:49.064Z,15.54
2022-10-22T01:53:34.339Z,15.59
2022-10-22T01:56:15.531Z,15.55
2022-10-22T01:58:46.340Z,15.52
2022-10-22T02:01:22.214Z,15.54
2022-10-22T02:03:55.543Z,15.48
2022-10-22T02:06:23.913Z,15.48
2022-10-22T02:08:52.124Z,15.53
2022-10-22T02:11:18.747Z,15.58
2022-10-22T02:13:51.154Z,15.62
2022-10-22T02:16:20.657Z,15.67
2022-10-22T02:18:47.509Z,15.59
2022-10-22T02:21:14.251Z,15.59
2022-10-22T02:23:40.662Z,15.66
2022-10-22T02:26:09.851Z,15.59
2022-10-22T02:28:39.484Z,15.56
2022-10-22T02:31:23.789Z,15.65
2022-10-22T02:33:55.039Z,15.71
2022-10-22T02:36:21.827Z,15.66
2022-10-22T02:38:50.821Z,15.71
2022-10-22T02:41:18.211Z,15.75
2022-10-22T02:43:45.506Z,15.70
2022-10-22T02:46:12.172Z,15.68
2022-10-22T02:48:38.513Z,15.70
2022-10-22T02:51:04.895Z,15.72
2022-10-22T02:53:31.654Z,15.58
2022-10-22T02:55:58.352Z,15.63
2022-10-22T02:58:24.718Z,15.68
2022-10-22T03:00:51.143Z,15.69
2022-10-22T03:03:17.574Z,15.68
2022-10-22T03:05:43.930Z,15.63
2022-10-22T03:08:10.260Z,15.63
2022-10-22T03:10:36.607Z,15.58
2022-10-22T03:13:02.943Z,15.56
2022-10-22T03:15:29.298Z,15.61
2022-10-22T03:17:55.643Z,15.62
2022-10-22T03:20:22.054Z,15.59
2022-10-22T03:22:48.505Z,15.57
2022-10-22T03:25:19.331Z,15.51
2022-10-22T03:27:46.335Z,15.59
2022-10-22T03:30:13.293Z,15.61
2022-10-22T03:32:39.717Z,15.61
2022-10-22T03:35:06.172Z,15.55
2022-10-22T03:37:33.400Z,15.57
2022-10-22T03:40:00.036Z,15.60
2022-10-22T03:42:26.551Z,15.62
2022-10-22T03:44:53.047Z,15.67
2022-10-22T03:47:19.448Z,15.69
2022-10-22T03:49:45.803Z,15.59
2022-10-22T03:52:13.556Z,15.60
2022-10-22T03:54:40.528Z,15.51
2022-10-22T03:57:06.934Z,15.16
2022-10-22T03:59:36.904Z,15.27
2022-10-22T04:02:03.786Z,15.36
2022-10-22T04:04:30.597Z,15.42
2022-10-22T04:06:57.151Z,15.49
2022-10-22T04:09:23.777Z,15.51
2022-10-22T04:11:50.184Z,15.48
2022-10-22T04:14:16.530Z,15.48
2022-10-22T04:16:42.890Z,15.47
2022-10-22T04:19:09.230Z,15.48
2022-10-22T04:21:35.592Z,15.46
2022-10-22T04:24:01.942Z,15.44
2022-10-22T04:26:28.311Z,15.45
2022-10-22T04:28:54.666Z,15.42
2022-10-22T04:31:22.974Z,15.38
2022-10-22T04:33:52.699Z,15.37
2022-10-22T04:36:19.542Z,15.37
2022-10-22T04:38:46.829Z,15.36
2022-10-22T04:41:21.408Z,15.31
2022-10-22T04:43:47.896Z,15.32
2022-10-22T04:46:15.340Z,15.26
2022-10-22T04:48:42.778Z,15.27
2022-10-22T04:51:10.979Z,15.21
2022-10-22T04:53:37.388Z,15.18
2022-10-22T04:56:27.176Z,15.16
2022-10-22T04:58:55.007Z,15.05
2022-10-22T05:01:22.926Z,15.01
2022-10-22T05:03:50.096Z,14.96
2022-10-22T05:06:17.230Z,14.95
2022-10-22T05:08:43.738Z,14.99
2022-10-22T05:11:17.573Z,15.01
2022-10-22T05:13:44.122Z,15.01
2022-10-22T05:16:10.575Z,14.99
2022-10-22T05:18:37.830Z,15.01
2022-10-22T05:21:05.340Z,14.96
2022-10-22T05:23:31.704Z,14.91
2022-10-22T05:26:01.395Z,14.91
2022-10-22T05:28:27.755Z,14.85
2022-10-22T05:30:58.496Z,14.85
2022-10-22T05:33:25.083Z,14.86
2022-10-22T05:35:51.875Z,14.77
2022-10-22T05:38:18.678Z,14.85
2022-10-22T05:40:45.395Z,14.84
2022-10-22T05:43:12.204Z,14.90
2022-10-22T05:45:39.316Z,14.83
2022-10-22T05:48:05.815Z,14.82
2022-10-22T05:50:32.213Z,14.83
2022-10-22T05:52:58.543Z,14.85
2022-10-22T05:55:24.913Z,14.87
2022-10-22T05:57:51.256Z,14.83
2022-10-22T06:00:17.689Z,14.83
2022-10-22T06:02:44.094Z,14.82
2022-10-22T06:05:10.503Z,14.80
2022-10-22T06:07:36.875Z,14.73
2022-10-22T06:10:03.325Z,14.78
2022-10-22T06:12:29.685Z,14.77
2022-10-22T06:14:56.042Z,14.79
2022-10-22T06:17:22.449Z,14.87
2022-10-22T06:19:48.848Z,14.92
2022-10-22T06:22:15.239Z,14.87
2022-10-22T06:24:44.318Z,14.83
2022-10-22T06:27:11.615Z,14.83
2022-10-22T06:29:37.976Z,14.90
2022-10-22T06:32:04.437Z,14.81
2022-10-22T06:34:30.793Z,14.70
2022-10-22T06:36:57.266Z,14.73
2022-10-22T06:39:23.613Z,14.84
2022-10-22T06:41:50.036Z,14.88
2022-10-22T06:44:18.294Z,14.82
2022-10-22T06:46:45.024Z,14.91
2022-10-22T06:49:15.006Z,14.90
2022-10-22T06:51:41.551Z,14.99
2022-10-22T06:54:07.927Z,15.00
2022-10-22T06:56:34.274Z,15.02
2022-10-22T06:59:00.630Z,15.11
2022-10-22T07:01:29.327Z,15.23
2022-10-22T07:03:55.796Z,15.30
2022-10-22T07:06:23.243Z,15.26
2022-10-22T07:08:49.663Z,15.34
2022-10-22T07:11:23.360Z,15.50
2022-10-22T07:13:50.431Z,15.49
2022-10-22T07:16:17.727Z,15.52
2022-10-22T07:18:44.559Z,15.66
2022-10-22T07:21:11.651Z,15.70
2022-10-22T07:23:38.461Z,15.80
2022-10-22T07:26:07.335Z,15.85
2022-10-22T07:28:34.664Z,15.67
2022-10-22T07:31:00.998Z,15.57
2022-10-22T07:33:27.436Z,15.61
2022-10-22T07:35:58.181Z,15.69
2022-10-22T07:38:24.586Z,15.72
2022-10-22T07:40:50.956Z,15.71
2022-10-22T07:43:17.297Z,15.66
2022-10-22T07:45:43.705Z,15.71
2022-10-22T07:48:10.057Z,15.68
2022-10-22T07:50:36.495Z,15.76
2022-10-22T07:53:02.885Z,15.80
2022-10-22T07:55:29.265Z,15.75
2022-10-22T07:57:55.644Z,15.86
2022-10-22T08:00:24.609Z,15.78
2022-10-22T08:02:51.937Z,15.94
2022-10-22T08:05:18.603Z,15.86
2022-10-22T08:07:45.337Z,15.88
2022-10-22T08:10:11.868Z,15.86
2022-10-22T08:12:38.813Z,15.77
2022-10-22T08:15:05.568Z,15.76
2022-10-22T08:17:31.916Z,15.84
2022-10-22T08:19:58.277Z,15.87
2022-10-22T08:22:24.666Z,16.05
2022-10-22T08:24:53.433Z,15.94
2022-10-22T08:27:19.948Z,15.92
2022-10-22T08:29:46.299Z,15.90
2022-10-22T08:32:12.785Z,15.93
2022-10-22T08:34:39.234Z,15.95
2022-10-22T08:37:08.332Z,15.95
2022-10-22T08:39:34.698Z,16.06
2022-10-22T08:42:04.105Z,16.08
2022-10-22T08:44:33.488Z,16.04
2022-10-22T08:46:59.857Z,16.05
2022-10-22T08:49:28.914Z,16.14
2022-10-22T08:51:57.507Z,16.12
2022-10-22T08:54:42.453Z,16.08
2022-10-22T08:57:08.941Z,16.18
2022-10-22T08:59:47.067Z,16.16
2022-10-22T09:02:28.605Z,16.14
2022-10-22T09:05:00.713Z,16.18
2022-10-22T09:07:27.084Z,16.33
2022-10-22T09:09:54.358Z,16.33
2022-10-22T09:12:23.087Z,16.35
2022-10-22T09:14:49.433Z,16.43
2022-10-22T09:17:18.787Z,16.39
2022-10-22T09:20:03.491Z,16.53
2022-10-22T09:22:42.004Z,16.48
2022-10-22T09:25:17.562Z,16.45
2022-10-22T09:27:44.282Z,16.39
2022-10-22T09:30:37.941Z,16.32
2022-10-22T09:33:07.140Z,16.38
2022-10-22T09:35:34.924Z,16.40
2022-10-22T09:38:08.499Z,16.43
2022-10-22T09:40:45.392Z,16.51
2022-10-22T09:43:12.586Z,16.43
2022-10-22T09:45:38.955Z,16.49
2022-10-22T09:48:14.590Z,16.44
2022-10-22T09:50:44.318Z,16.59
2022-10-22T09:53:13.752Z,16.57
2022-10-22T09:55:42.224Z,16.52
2022-10-22T09:58:11.098Z,16.53
2022-10-22T10:00:38.499Z,16.63
2022-10-22T10:03:04.977Z,16.65
2022-10-22T10:05:32.776Z,16.65
2022-10-22T10:08:02.350Z,16.68
2022-10-22T10:10:34.047Z,16.63
2022-10-22T10:13:23.759Z,16.72
2022-10-22T10:16:00.543Z,16.69
2022-10-22T10:18:45.554Z,16.78
2022-10-22T10:21:31.383Z,16.87
2022-10-22T10:24:09.692Z,16.81
2022-10-22T10:26:38.804Z,16.82
2022-10-22T10:29:11.329Z,16.86
2022-10-22T10:31:40.834Z,16.90
2022-10-22T10:34:19.506Z,16.92
2022-10-22T10:36:45.928Z,16.94
2022-10-22T10:39:35.729Z,16.93
2022-10-22T10:42:06.938Z,16.97
2022-10-22T10:44:33.319Z,16.96
2022-10-22T10:47:07.901Z,16.94
2022-10-22T10:49:35.004Z,17.06
2022-10-22T10:52:10.352Z,17.00
2022-10-22T10:54:51.883Z,16.92
2022-10-22T10:57:24.243Z,16.91
2022-10-22T10:59:56.752Z,16.98
2022-10-22T11:02:23.127Z,16.98
2022-10-22T11:05:07.054Z,16.94
2022-10-22T11:07:50.816Z,16.96
2022-10-22T11:10:20.099Z,16.90
2022-10-22T11:12:51.332Z,16.86
2022-10-22T11:15:34.649Z,16.88
2022-10-22T11:18:11.738Z,16.89
2022-10-22T11:20:43.308Z,16.83
2022-10-22T11:23:19.630Z,16.86
2022-10-22T11:25:47.323Z,16.77
2022-10-22T11:28:20.913Z,16.88
2022-10-22T11:30:49.492Z,16.84
2022-10-22T11:33:18.725Z,16.88
2022-10-22T11:35:46.291Z,16.88
2022-10-22T11:38:15.395Z,16.97
2022-10-22T11:41:00.371Z,16.94
2022-10-22T11:43:29.728Z,16.96
2022-10-22T11:46:28.206Z,17.00
2022-10-22T11:49:02.062Z,16.95
2022-10-22T11:51:28.401Z,17.00
2022-10-22T11:53:58.611Z,17.00
2022-10-22T11:56:26.260Z,17.00
2022-10-22T11:58:54.659Z,16.98
2022-10-22T12:01:23.805Z,17.02
2022-10-22T12:03:52.143Z,17.06
2022-10-22T12:06:21.029Z,17.09
2022-10-22T12:08:51.091Z,17.15
2022-10-22T12:11:20.284Z,17.13
2022-10-22T12:14:06.076Z,17.08
2022-10-22T12:16:54.257Z,17.06
2022-10-22T12:19:21.815Z,17.04
2022-10-22T12:21:59.132Z,17.07
2022-10-22T12:24:29.382Z,17.17
2022-10-22T12:26:55.802Z,17.20
2022-10-22T12:29:26.590Z,17.19
2022-10-22T12:31:53.566Z,17.19
2022-10-22T12:34:23.884Z,17.16
2022-10-22T12:36:51.669Z,17.19
2022-10-22T12:39:20.029Z,17.24
2022-10-22T12:41:46.661Z,17.18
2022-10-22T12:44:14.478Z,17.25
2022-10-22T12:46:42.000Z,17.26
2022-10-22T12:49:13.465Z,17.37
2022-10-22T12:51:40.047Z,17.44
2022-10-22T12:54:13.914Z,17.53
2022-10-22T12:56:40.385Z,17.53
2022-10-22T12:59:18.465Z,17.47
2022-10-22T13:01:45.044Z,17.47
2022-10-22T13:04:20.668Z,17.51
2022-10-22T13:06:48.652Z,17.55
2022-10-22T13:09:25.197Z,17.69
2022-10-22T13:11:58.023Z,17.76
2022-10-22T13:14:28.945Z,17.85
2022-10-22T13:17:15.502Z,17.84
2022-10-22T13:19:41.953Z,17.76
2022-10-22T13:22:26.535Z,17.72
2022-10-22T13:24:53.393Z,17.73
2022-10-22T13:27:20.057Z,17.83
2022-10-22T13:29:46.569Z,17.94
2022-10-22T13:32:32.683Z,18.10
2022-10-22T13:35:00.376Z,18.08
2022-10-22T13:37:27.736Z,18.07
2022-10-22T13:39:54.094Z,18.07
2022-10-22T13:42:20.495Z,18.08
2022-10-22T13:44:46.924Z,17.98
2022-10-22T13:47:24.466Z,18.03
2022-10-22T13:49:51.263Z,18.09
2022-10-22T13:52:22.408Z,18.09
2022-10-22T13:54:48.772Z,18.07
2022-10-22T13:57:15.114Z,18.07
2022-10-22T13:59:41.511Z,18.07
2022-10-22T14:02:14.029Z,18.05
2022-10-22T14:04:41.408Z,17.99
2022-10-22T14:07:13.614Z,18.04
2022-10-22T14:09:40.150Z,18.17
2022-10-22T14:12:14.051Z,18.17
2022-10-22T14:14:40.401Z,18.14
2022-10-22T14:17:09.637Z,18.25
2022-10-22T14:19:36.007Z,18.23
2022-10-22T14:22:02.502Z,18.38
2022-10-22T14:24:28.881Z,18.37
2022-10-22T14:26:55.257Z,18.42
2022-10-22T14:29:22.017Z,18.35
2022-10-22T14:31:48.431Z,18.53
2022-10-22T14:34:15.733Z,18.61
2022-10-22T14:36:43.961Z,18.67
2022-10-22T14:39:10.836Z,18.68
2022-10-22T14:41:37.261Z,18.51
2022-10-22T14:44:03.735Z,18.53
2022-10-22T14:46:30.228Z,18.65
2022-10-22T14:48:56.592Z,18.54
2022-10-22T14:51:23.188Z,18.45
2022-10-22T14:53:49.778Z,18.58
2022-10-22T14:56:17.497Z,18.64
2022-10-22T14:58:44.009Z,18.59
2022-10-22T15:01:10.413Z,18.67
2022-10-22T15:03:36.824Z,18.68
2022-10-22T15:06:03.765Z,18.59
2022-10-22T15:08:30.449Z,18.68
2022-10-22T15:10:57.765Z,18.54
2022-10-22T15:13:24.128Z,18.78
2022-10-22T15:15:50.476Z,18.83
2022-10-22T15:18:16.832Z,18.76
2022-10-22T15:20:43.191Z,18.86
2022-10-22T15:23:09.561Z,18.91
2022-10-22T15:25:35.939Z,18.83
2022-10-22T15:28:09.454Z,18.77
2022-10-22T15:30:36.457Z,18.82
2022-10-22T15:33:03.035Z,18.69
2022-10-22T15:35:29.407Z,18.63
2022-10-22T15:37:55.792Z,18.59
2022-10-22T15:40:22.167Z,18.57
2022-10-22T15:42:48.546Z,18.46
2022-10-22T15:45:15.685Z,18.52
2022-10-22T15:47:47.425Z,18.58
2022-10-22T15:50:14.696Z,18.56
2022-10-22T15:52:41.095Z,18.53
2022-10-22T15:55:10.439Z,18.56
2022-10-22T15:57:37.378Z,18.46
2022-10-22T16:00:04.633Z,18.61
2022-10-22T16:02:38.721Z,18.64
2022-10-22T16:05:05.292Z,18.65
2022-10-22T16:07:31.681Z,18.67
2022-10-22T16:09:58.295Z,18.61
2022-10-22T16:12:24.690Z,18.56
2022-10-22T16:14:51.314Z,18.61
2022-10-22T16:17:18.127Z,18.65
2022-10-22T16:19:44.521Z,18.65
2022-10-22T16:22:13.664Z,18.61
2022-10-22T16:24:43.095Z,18.55
2022-10-22T16:27:09.693Z,18.54
2022-10-22T16:29:39.449Z,18.49
2022-10-22T16:32:06.012Z,18.41
2022-10-22T16:34:32.414Z,18.37
2022-10-22T16:36:58.801Z,18.33
2022-10-22T16:39:25.281Z,18.25
2022-10-22T16:41:51.760Z,18.15
2022-10-22T16:44:18.159Z,18.08
2022-10-22T16:46:44.571Z,18.03
2022-10-22T16:49:10.978Z,17.97
2022-10-22T16:51:37.398Z,17.93
2022-10-22T16:54:06.790Z,17.89
2022-10-22T16:56:36.507Z,17.83
2022-10-22T16:59:02.951Z,17.79
2022-10-22T17:01:29.822Z,17.72
2022-10-22T17:03:58.756Z,17.74
2022-10-22T17:06:25.353Z,17.73
2022-10-22T17:08:51.922Z,17.60
2022-10-22T17:11:19.930Z,17.48
2022-10-22T17:13:48.624Z,17.42
2022-10-22T17:16:15.985Z,17.40
2022-10-22T17:18:43.206Z,17.42
2022-10-22T17:21:10.616Z,17.44
2022-10-22T17:23:37.490Z,17.48
2022-10-22T17:26:06.519Z,17.52
2022-10-22T17:28:33.421Z,17.50
2022-10-22T17:31:07.266Z,17.49
2022-10-22T17:33:35.327Z,17.49
2022-10-22T17:36:01.993Z,17.49
2022-10-22T17:38:28.416Z,17.48
2022-10-22T17:40:54.829Z,17.42
2022-10-22T17:43:21.236Z,17.38
2022-10-22T17:45:47.690Z,17.34
2022-10-22T17:48:14.205Z,17.32
2022-10-22T17:50:41.401Z,17.30
2022-10-22T17:53:07.814Z,17.30
2022-10-22T17:55:34.778Z,17.28
2022-10-22T17:58:01.467Z,17.26
2022-10-22T18:00:29.421Z,17.24
2022-10-22T18:02:55.786Z,17.24
2022-10-22T18:05:24.071Z,17.14
2022-10-22T18:07:53.457Z,17.10
2022-10-22T18:10:19.801Z,17.09
2022-10-22T18:12:53.068Z,17.07
2022-10-22T18:15:19.530Z,17.08
2022-10-22T18:17:47.026Z,17.04
2022-10-22T18:20:13.517Z,16.97
2022-10-22T18:22:42.115Z,16.91
2022-10-22T18:25:08.969Z,16.91
2022-10-22T18:27:35.424Z,16.91
2022-10-22T18:30:01.883Z,16.90
2022-10-22T18:32:28.333Z,16.93
2022-10-22T18:34:54.710Z,16.84
2022-10-22T18:37:21.096Z,16.88
2022-10-22T18:39:47.475Z,16.90
2022-10-22T18:44:45.096Z,16.95
2022-10-22T18:47:11.961Z,16.97
2022-10-22T18:49:38.340Z,16.98
2022-10-22T18:52:04.785Z,16.95
2022-10-22T18:54:31.337Z,16.83
2022-10-22T18:57:00.616Z,16.73
2022-10-22T18:59:29.139Z,16.72
2022-10-22T19:01:59.245Z,16.68
2022-10-22T19:04:30.946Z,16.76
2022-10-22T19:06:57.421Z,16.74
2022-10-22T19:09:24.618Z,16.65
2022-10-22T19:11:51.064Z,16.63
2022-10-22T19:14:19.443Z,16.59
2022-10-22T19:16:45.994Z,16.58
2022-10-22T19:19:15.238Z,16.53
2022-10-22T19:21:41.620Z,16.48
2022-10-22T19:24:08.411Z,16.45
2022-10-22T19:26:34.880Z,16.43
2022-10-22T19:29:01.329Z,16.39
2022-10-22T19:31:29.853Z,16.37
2022-10-22T19:33:56.754Z,16.37
2022-10-22T19:36:30.119Z,16.30
2022-10-22T19:38:57.446Z,16.15
2022-10-22T19:41:25.374Z,16.15
2022-10-22T19:43:52.559Z,16.16
2022-10-22T19:46:20.160Z,16.17
2022-10-22T19:48:46.870Z,16.18
2022-10-22T19:51:33.329Z,16.15
2022-10-22T19:54:11.430Z,16.25
2022-10-22T19:56:38.316Z,16.23
2022-10-22T19:59:05.245Z,16.21
2022-10-22T20:01:32.091Z,16.26
2022-10-22T20:03:58.605Z,16.35
2022-10-22T20:06:25.165Z,16.36
2022-10-22T20:08:55.195Z,16.40
2022-10-22T20:11:27.316Z,16.39
2022-10-22T20:13:54.538Z,16.26
2022-10-22T20:16:24.865Z,16.34
2022-10-22T20:18:52.255Z,16.41
2022-10-22T20:21:21.989Z,16.33
2022-10-22T20:23:51.344Z,16.33
2022-10-22T20:26:17.746Z,16.36
2022-10-22T20:28:44.393Z,16.36
2022-10-22T20:31:16.821Z,16.39
2022-10-22T20:33:43.690Z,16.37
2022-10-22T20:36:13.368Z,16.29
2022-10-22T20:38:39.872Z,16.18
2022-10-22T20:41:08.087Z,16.09
2022-10-22T20:43:34.633Z,16.01
2022-10-22T20:46:01.270Z,15.95
2022-10-22T20:48:31.115Z,15.95
2022-10-22T20:50:58.331Z,15.83
2022-10-22T20:53:25.027Z,15.84
2022-10-22T20:55:53.231Z,15.88
2022-10-22T20:58:22.253Z,15.79
2022-10-22T21:00:50.123Z,15.82
2022-10-22T21:03:16.671Z,15.91
2022-10-22T21:05:43.130Z,15.93
2022-10-22T21:08:11.895Z,15.95
2022-10-22T21:10:38.378Z,15.97
2022-10-22T21:13:04.769Z,16.01
2022-10-22T21:15:31.282Z,16.05
2022-10-22T21:17:57.779Z,16.01
2022-10-22T21:20:24.941Z,16.05
2022-10-22T21:22:51.859Z,16.00
2022-10-22T21:25:18.212Z,15.99
2022-10-22T21:27:44.582Z,15.94
2022-10-22T21:30:11.142Z,15.97
2022-10-22T21:32:37.555Z,15.97
2022-10-22T21:35:04.134Z,15.95
2022-10-22T21:37:30.583Z,15.93
2022-10-22T21:39:58.104Z,15.88
2022-10-22T21:42:24.473Z,15.87
2022-10-22T21:44:51.128Z,15.93
2022-10-22T21:47:17.554Z,15.90
2022-10-22T21:49:44.056Z,15.83
2022-10-22T21:52:10.451Z,15.87
2022-10-22T21:54:37.471Z,15.81
2022-10-22T21:57:04.209Z,15.91
2022-10-22T21:59:32.224Z,15.95
2022-10-22T22:02:03.383Z,15.95
2022-10-22T22:04:32.153Z,15.88
2022-10-22T22:06:58.575Z,15.82
2022-10-22T22:09:25.006Z,15.76
2022-10-22T22:11:51.394Z,15.74
2022-10-22T22:14:17.764Z,15.83
2022-10-22T22:16:44.121Z,15.85
2022-10-22T22:19:10.521Z,15.75
2022-10-22T22:21:39.291Z,15.75
2022-10-22T22:24:06.106Z,15.74
2022-10-22T22:26:32.925Z,15.74
2022-10-22T22:28:59.669Z,15.73
2022-10-22T22:31:27.575Z,15.74
2022-10-22T22:34:07.329Z,15.71
2022-10-22T22:36:37.990Z,15.50
2022-10-22T22:39:08.239Z,15.53
2022-10-22T22:41:34.680Z,15.58
2022-10-22T22:44:01.220Z,15.66
2022-10-22T22:46:27.620Z,15.63
2022-10-22T22:48:53.990Z,15.65
2022-10-22T22:51:20.370Z,15.68
2022-10-22T22:53:46.733Z,15.74
2022-10-22T22:56:13.063Z,15.76
2022-10-22T22:58:40.582Z,15.73
2022-10-22T23:01:12.843Z,15.72
2022-10-22T23:03:39.390Z,15.74
2022-10-22T23:06:05.948Z,15.74
2022-10-22T23:08:32.391Z,15.73
2022-10-22T23:11:09.506Z,15.72
2022-10-22T23:13:36.219Z,15.68
2022-10-22T23:16:06.565Z,15.59
2022-10-22T23:18:32.970Z,15.39
2022-10-22T23:21:02.526Z,15.47
2022-10-22T23:23:28.880Z,15.52
2022-10-22T23:25:55.927Z,15.57
2022-10-22T23:28:23.153Z,15.49
2022-10-22T23:30:49.556Z,15.58
2022-10-22T23:33:16.360Z,15.55
2022-10-22T23:35:42.905Z,15.58
2022-10-22T23:38:09.282Z,15.53
2022-10-22T23:40:35.794Z,15.57
2022-10-22T23:43:02.246Z,15.54
2022-10-22T23:45:28.634Z,15.46
2022-10-22T23:47:54.989Z,15.44
2022-10-22T23:50:21.378Z,15.43
2022-10-22T23:52:47.755Z,15.38
2022-10-22T23:55:14.304Z,15.39
2022-10-22T23:57:40.646Z,15.31
